Time;durP1;ratioP1;P1;durP2;ratioP2;P2;SDS_P1;SDS_P2;PMS_P1;PMS_P2;Temp;Humidity;BMP_temperature;BMP_pressure;BME280_temperature;BME280_humidity;BME280_pressure;Samples;Min_cycle;Max_cycle;Signal;HPM_P1;HPM_P2
2022/03/03 00:00:15;;;;;;;56.05;33.53;;;3.80;80.80;;;;;;4929908;29;20032;-65
2022/03/03 00:02:42;;;;;;;61.47;36.40;;;3.80;80.80;;;;;;4923131;29;20122;-65
2022/03/03 00:05:08;;;;;;;57.83;34.13;;;3.90;80.80;;;;;;4900150;29;20370;-64
2022/03/03 00:07:33;;;;;;;59.13;33.33;;;3.80;80.80;;;;;;4930923;29;20082;-64
2022/03/03 00:09:59;;;;;;;57.03;34.28;;;3.90;80.80;;;;;;4931923;29;20075;-65
2022/03/03 00:12:25;;;;;;;53.67;33.42;;;3.90;80.80;;;;;;4931426;29;20044;-66
2022/03/03 00:14:50;;;;;;;54.85;33.78;;;3.90;80.80;;;;;;4932253;29;20420;-65
2022/03/03 00:17:16;;;;;;;59.08;34.80;;;3.90;80.80;;;;;;4932162;29;20039;-65
2022/03/03 00:19:42;;;;;;;57.50;34.33;;;3.90;80.60;;;;;;4931994;29;20098;-65
2022/03/03 00:22:09;;;;;;;54.38;33.40;;;3.90;80.60;;;;;;4918824;29;20062;-65
2022/03/03 00:24:34;;;;;;;54.38;35.03;;;3.90;80.70;;;;;;4913364;29;20044;-66
2022/03/03 00:27:00;;;;;;;55.95;32.80;;;3.80;80.70;;;;;;4913095;29;20048;-65
2022/03/03 00:29:26;;;;;;;55.13;34.17;;;3.90;80.80;;;;;;4912325;29;20047;-65
2022/03/03 00:31:51;;;;;;;60.85;35.20;;;3.90;80.80;;;;;;4922616;29;20051;-65
2022/03/03 00:34:17;;;;;;;54.75;33.63;;;3.90;80.80;;;;;;4931995;29;20181;-65
2022/03/03 00:36:42;;;;;;;57.72;33.20;;;3.90;80.80;;;;;;4931604;29;20048;-65
2022/03/03 00:39:08;;;;;;;60.40;37.38;;;3.90;80.80;;;;;;4934763;29;20492;-67
2022/03/03 00:41:34;;;;;;;59.95;35.92;;;3.90;80.80;;;;;;4910301;29;20087;-64
2022/03/03 00:44:00;;;;;;;60.75;35.67;;;3.90;80.80;;;;;;4916619;29;20131;-64
2022/03/03 00:46:26;;;;;;;58.55;33.35;;;3.90;80.70;;;;;;4917103;29;20048;-65
2022/03/03 00:48:54;;;;;;;57.92;34.70;;;3.90;80.60;;;;;;4916394;29;20048;-65
2022/03/03 00:51:20;;;;;;;58.65;33.78;;;3.80;80.70;;;;;;4904753;29;20094;-65
2022/03/03 00:53:47;;;;;;;60.05;34.45;;;3.80;80.70;;;;;;4935424;29;20055;-65
2022/03/03 00:56:12;;;;;;;61.25;36.38;;;3.70;80.70;;;;;;4935154;29;20063;-66
2022/03/03 00:58:38;;;;;;;64.75;34.50;;;3.70;80.70;;;;;;4935496;29;20045;-66
2022/03/03 01:01:03;;;;;;;60.90;34.40;;;3.60;80.80;;;;;;4935169;29;20122;-65
2022/03/03 01:03:29;;;;;;;57.53;34.75;;;3.60;80.80;;;;;;4935450;29;20051;-65
2022/03/03 01:05:55;;;;;;;58.25;34.20;;;3.60;80.90;;;;;;4934729;29;20043;-64
2022/03/03 01:08:21;;;;;;;61.63;36.05;;;3.60;80.80;;;;;;4934408;29;20123;-65
2022/03/03 01:10:46;;;;;;;64.60;35.60;;;3.60;80.90;;;;;;4934537;29;20519;-65
2022/03/03 01:13:12;;;;;;;64.38;35.17;;;3.50;81.00;;;;;;4918187;29;20421;-65
2022/03/03 01:15:37;;;;;;;63.47;36.55;;;3.50;81.00;;;;;;4918621;29;20055;-66
2022/03/03 01:18:03;;;;;;;60.22;36.58;;;3.50;81.10;;;;;;4935129;29;20067;-66
2022/03/03 01:20:30;;;;;;;57.15;33.75;;;3.50;81.00;;;;;;4935210;29;20457;-64
2022/03/03 01:22:56;;;;;;;57.88;36.00;;;3.40;81.00;;;;;;4917475;29;20099;-65
2022/03/03 01:25:23;;;;;;;58.20;34.13;;;3.40;81.00;;;;;;4916544;29;20047;-65
2022/03/03 01:27:51;;;;;;;63.47;34.90;;;3.40;81.00;;;;;;4916111;29;20131;-65
2022/03/03 01:30:17;;;;;;;56.50;34.65;;;3.40;81.10;;;;;;4915559;29;20128;-64
2022/03/03 01:32:42;;;;;;;61.75;34.50;;;3.30;81.10;;;;;;4913795;29;20126;-67
2022/03/03 01:35:08;;;;;;;62.35;36.13;;;3.30;81.20;;;;;;4917769;29;20047;-66
2022/03/03 01:37:34;;;;;;;63.17;35.15;;;3.30;81.20;;;;;;4934600;29;20111;-64
2022/03/03 01:39:59;;;;;;;63.28;36.15;;;3.30;81.30;;;;;;4934912;29;20039;-64
2022/03/03 01:42:25;;;;;;;61.00;36.90;;;3.20;81.30;;;;;;4920891;29;20036;-65
2022/03/03 01:44:51;;;;;;;59.97;35.65;;;3.20;81.40;;;;;;4916025;29;20051;-63
2022/03/03 01:47:22;;;;;;;58.80;35.78;;;3.20;81.40;;;;;;4915529;29;20051;-64
2022/03/03 01:49:49;;;;;;;56.92;34.28;;;3.20;81.50;;;;;;4914899;29;20044;-65
2022/03/03 01:52:15;;;;;;;55.90;33.92;;;3.20;81.50;;;;;;4926820;29;20067;-65
2022/03/03 01:54:42;;;;;;;60.83;35.72;;;3.20;81.50;;;;;;4933489;29;20530;-65
2022/03/03 01:57:08;;;;;;;57.22;33.67;;;3.20;81.50;;;;;;4934325;29;20043;-64
2022/03/03 01:59:35;;;;;;;66.65;36.17;;;3.20;81.40;;;;;;4934527;29;20357;-66
2022/03/03 02:02:03;;;;;;;56.33;34.40;;;3.20;81.40;;;;;;4917135;29;20051;-65
2022/03/03 02:04:28;;;;;;;58.30;34.47;;;3.20;81.50;;;;;;4933764;29;20472;-65
2022/03/03 02:06:54;;;;;;;62.95;34.20;;;3.10;81.40;;;;;;4933766;29;20090;-64
2022/03/03 02:09:20;;;;;;;57.45;34.58;;;3.20;81.50;;;;;;4934151;29;20043;-64
2022/03/03 02:11:46;;;;;;;57.80;34.40;;;3.20;81.50;;;;;;4933332;29;20040;-65
2022/03/03 02:14:13;;;;;;;59.58;34.33;;;3.10;81.40;;;;;;4934519;29;20047;-65
2022/03/03 02:16:39;;;;;;;56.30;35.03;;;3.10;81.40;;;;;;4933699;29;20579;-65
2022/03/03 02:19:05;;;;;;;64.70;35.65;;;3.10;81.40;;;;;;4934222;29;20052;-65
2022/03/03 02:21:30;;;;;;;56.15;33.05;;;3.10;81.40;;;;;;4929414;29;20036;-65
2022/03/03 02:23:56;;;;;;;60.58;36.03;;;3.10;81.30;;;;;;4915015;29;20489;-65
2022/03/03 02:26:23;;;;;;;64.60;36.38;;;3.10;81.40;;;;;;4914483;29;20052;-65
2022/03/03 02:28:50;;;;;;;61.50;35.75;;;3.10;81.40;;;;;;4914765;29;20456;-65
2022/03/03 02:31:16;;;;;;;61.25;34.97;;;3.00;81.50;;;;;;4916956;29;20040;-65
2022/03/03 02:33:42;;;;;;;65.20;36.60;;;3.10;81.60;;;;;;4932438;29;20043;-65
2022/03/03 02:36:23;;;;;;;63.20;35.95;;;3.10;81.50;;;;;;4933787;29;20050;-65
2022/03/03 02:38:52;;;;;;;60.00;35.17;;;3.10;81.50;;;;;;4933399;29;20048;-66
2022/03/03 02:41:18;;;;;;;56.75;34.42;;;3.00;81.50;;;;;;4914067;29;20047;-66
2022/03/03 02:43:44;;;;;;;55.42;33.90;;;3.00;81.60;;;;;;4914472;29;20353;-66
2022/03/03 02:46:11;;;;;;;58.50;35.75;;;3.00;81.60;;;;;;4914550;29;20076;-65
2022/03/03 02:48:37;;;;;;;59.55;34.75;;;3.00;81.70;;;;;;4914489;29;20527;-65
2022/03/03 02:51:04;;;;;;;61.22;33.65;;;2.90;81.60;;;;;;4896569;29;20560;-65
2022/03/03 02:53:30;;;;;;;63.28;35.13;;;2.90;81.60;;;;;;4914265;29;20135;-65
2022/03/03 02:55:57;;;;;;;60.72;34.28;;;2.90;81.60;;;;;;4914783;29;20076;-66
2022/03/03 02:58:23;;;;;;;54.00;33.47;;;2.90;81.60;;;;;;4914684;29;20048;-65
2022/03/03 03:00:48;;;;;;;54.53;33.90;;;2.90;81.70;;;;;;4914365;29;20839;-66
2022/03/03 03:03:15;;;;;;;56.90;33.25;;;2.90;81.70;;;;;;4914074;29;20114;-64
2022/03/03 03:05:41;;;;;;;56.38;36.08;;;2.90;81.60;;;;;;4922168;29;20056;-63
2022/03/03 03:08:07;;;;;;;59.20;35.97;;;2.90;81.70;;;;;;4924664;29;20052;-64
2022/03/03 03:10:33;;;;;;;59.55;34.17;;;2.90;81.70;;;;;;4897302;29;20067;-64
2022/03/03 03:12:59;;;;;;;58.13;35.10;;;2.90;81.60;;;;;;4913830;29;20131;-64
2022/03/03 03:15:24;;;;;;;57.88;34.05;;;2.80;81.50;;;;;;4914140;29;20522;-64
2022/03/03 03:17:50;;;;;;;60.60;33.92;;;2.80;81.50;;;;;;4914129;29;20048;-64
2022/03/03 03:20:16;;;;;;;56.42;33.15;;;2.70;81.50;;;;;;4913991;29;20066;-66
2022/03/03 03:22:42;;;;;;;56.30;33.88;;;2.70;81.50;;;;;;4913607;29;20493;-65
2022/03/03 03:25:13;;;;;;;55.08;32.05;;;2.70;81.60;;;;;;4914195;29;20051;-65
2022/03/03 03:27:41;;;;;;;55.20;34.00;;;2.70;81.60;;;;;;4918314;29;20050;-65
2022/03/03 03:30:10;;;;;;;52.80;31.80;;;2.70;81.50;;;;;;4932442;29;20047;-65
2022/03/03 03:32:36;;;;;;;57.92;32.30;;;2.70;81.40;;;;;;4932913;29;20044;-64
2022/03/03 03:35:04;;;;;;;54.33;33.05;;;2.70;81.30;;;;;;4932392;29;20048;-64
2022/03/03 03:37:30;;;;;;;57.67;31.02;;;2.70;81.30;;;;;;4929145;29;20055;-64
2022/03/03 03:39:56;;;;;;;56.95;35.65;;;2.70;81.40;;;;;;4912644;29;20139;-65
2022/03/03 03:42:21;;;;;;;57.08;31.98;;;2.70;81.30;;;;;;4896109;29;20134;-65
2022/03/03 03:44:47;;;;;;;55.22;31.98;;;2.70;81.30;;;;;;4913156;29;20047;-66
2022/03/03 03:47:13;;;;;;;54.33;34.13;;;2.80;81.20;;;;;;4896582;29;20099;-65
2022/03/03 03:49:39;;;;;;;58.05;32.47;;;2.70;81.20;;;;;;4932179;29;20580;-65
2022/03/03 03:52:05;;;;;;;58.17;34.40;;;2.70;81.20;;;;;;4915646;29;20134;-66
2022/03/03 03:54:31;;;;;;;51.13;31.25;;;2.70;81.00;;;;;;4931913;29;20051;-65
2022/03/03 03:56:56;;;;;;;51.42;31.40;;;2.70;80.90;;;;;;4931882;29;20047;-66
2022/03/03 03:59:22;;;;;;;54.97;31.17;;;2.70;80.90;;;;;;4914284;29;20044;-66
2022/03/03 04:01:48;;;;;;;54.67;32.35;;;2.60;80.90;;;;;;4912494;29;20040;-64
2022/03/03 04:04:13;;;;;;;57.53;32.53;;;2.60;80.90;;;;;;4912924;29;20055;-65
2022/03/03 04:06:40;;;;;;;62.83;32.97;;;2.60;80.90;;;;;;4911539;29;20046;-65
2022/03/03 04:09:06;;;;;;;50.42;30.60;;;2.50;80.90;;;;;;4899253;29;20056;-65
2022/03/03 04:11:31;;;;;;;57.20;32.80;;;2.50;81.00;;;;;;4913224;29;20103;-64
2022/03/03 04:13:57;;;;;;;52.92;32.85;;;2.50;81.00;;;;;;4912893;29;20501;-64
2022/03/03 04:16:24;;;;;;;55.70;32.70;;;2.50;81.00;;;;;;4913449;29;20501;-65
2022/03/03 04:18:50;;;;;;;55.28;31.92;;;2.40;81.00;;;;;;4925592;29;20121;-65
2022/03/03 04:21:15;;;;;;;59.17;33.45;;;2.40;81.10;;;;;;4914708;29;20505;-65
2022/03/03 04:23:41;;;;;;;58.80;32.00;;;2.50;81.20;;;;;;4912918;29;20045;-65
2022/03/03 04:26:07;;;;;;;55.63;31.75;;;2.40;81.20;;;;;;4895997;29;20086;-65
2022/03/03 04:28:32;;;;;;;53.88;32.80;;;2.40;81.10;;;;;;4923073;29;20110;-64
2022/03/03 04:30:58;;;;;;;52.00;30.75;;;2.40;81.10;;;;;;4931733;29;20039;-65
2022/03/03 04:33:24;;;;;;;52.80;29.58;;;2.40;81.10;;;;;;4931343;29;20043;-64
2022/03/03 04:35:49;;;;;;;51.45;30.83;;;2.40;81.10;;;;;;4931817;29;20448;-66
2022/03/03 04:38:15;;;;;;;50.58;30.85;;;2.40;81.10;;;;;;4923525;29;20048;-65
2022/03/03 04:40:40;;;;;;;49.65;29.65;;;2.30;81.00;;;;;;4912570;29;20127;-65
2022/03/03 04:43:06;;;;;;;53.30;31.55;;;2.40;81.00;;;;;;4912844;29;20103;-65
2022/03/03 04:45:31;;;;;;;55.20;31.27;;;2.40;80.90;;;;;;4912123;29;20151;-65
2022/03/03 04:47:57;;;;;;;55.20;31.33;;;2.40;80.90;;;;;;4901150;29;20062;-65
2022/03/03 04:50:23;;;;;;;53.50;31.45;;;2.40;80.90;;;;;;4914942;29;20044;-65
2022/03/03 04:52:48;;;;;;;54.85;31.65;;;2.40;81.00;;;;;;4931200;29;20055;-65
2022/03/03 04:55:14;;;;;;;55.38;32.95;;;2.40;81.00;;;;;;4932119;29;20056;-65
2022/03/03 04:57:39;;;;;;;57.13;32.33;;;2.30;81.00;;;;;;4928463;29;20135;-65
2022/03/03 05:00:06;;;;;;;57.60;32.38;;;2.30;81.10;;;;;;4912877;29;20092;-65
2022/03/03 05:02:32;;;;;;;49.83;30.02;;;2.40;81.10;;;;;;4912780;29;20166;-65
2022/03/03 05:04:57;;;;;;;52.05;31.65;;;2.30;81.10;;;;;;4915471;29;20098;-65
2022/03/03 05:07:23;;;;;;;50.20;31.02;;;2.30;81.10;;;;;;4931458;29;20048;-65
2022/03/03 05:09:49;;;;;;;52.90;30.40;;;2.30;81.10;;;;;;4931898;29;20463;-65
2022/03/03 05:12:14;;;;;;;58.42;33.45;;;2.20;81.20;;;;;;4931355;29;20087;-65
2022/03/03 05:14:40;;;;;;;53.10;30.10;;;2.20;81.20;;;;;;4932261;29;20126;-65
2022/03/03 05:17:05;;;;;;;45.63;27.65;;;2.20;81.20;;;;;;4898700;29;20050;-65
2022/03/03 05:19:31;;;;;;;53.28;31.33;;;2.20;81.20;;;;;;4931366;29;20094;-65
2022/03/03 05:21:57;;;;;;;51.03;29.73;;;2.20;81.20;;;;;;4931653;29;20464;-65
2022/03/03 05:24:23;;;;;;;51.92;30.85;;;2.20;81.10;;;;;;4931781;29;20106;-65
2022/03/03 05:26:48;;;;;;;48.85;30.17;;;2.20;81.10;;;;;;4934590;29;20055;-65
2022/03/03 05:29:14;;;;;;;51.00;28.77;;;2.20;81.10;;;;;;4934082;29;20082;-65
2022/03/03 05:31:41;;;;;;;49.92;29.33;;;2.20;80.80;;;;;;4935071;29;20187;-65
2022/03/03 05:34:07;;;;;;;49.00;29.90;;;2.20;80.80;;;;;;4935188;29;20052;-65
2022/03/03 05:36:40;;;;;;;50.38;29.52;;;2.20;80.80;;;;;;4917085;29;20106;-67
2022/03/03 05:39:07;;;;;;;48.35;28.70;;;2.20;80.70;;;;;;4931301;29;20047;-67
2022/03/03 05:41:34;;;;;;;47.70;26.40;;;2.20;80.60;;;;;;4918977;29;20353;-66
2022/03/03 05:44:00;;;;;;;49.22;28.50;;;2.20;80.50;;;;;;4935765;29;20062;-67
2022/03/03 05:46:26;;;;;;;47.17;27.08;;;2.10;80.40;;;;;;4935318;29;20337;-66
2022/03/03 05:48:51;;;;;;;50.38;29.25;;;2.10;80.30;;;;;;4900459;29;20044;-65
2022/03/03 05:51:18;;;;;;;48.03;27.65;;;2.10;80.30;;;;;;4934615;29;20122;-66
2022/03/03 05:53:44;;;;;;;47.75;28.80;;;2.10;80.30;;;;;;4934277;29;20052;-65
2022/03/03 05:56:10;;;;;;;43.97;27.08;;;2.20;80.30;;;;;;4934925;29;20519;-64
2022/03/03 05:58:47;;;;;;;45.45;28.73;;;2.20;80.30;;;;;;4933628;29;20043;-66
2022/03/03 06:01:14;;;;;;;48.00;28.13;;;2.20;80.20;;;;;;4927446;29;20051;-66
2022/03/03 06:03:40;;;;;;;48.10;29.27;;;2.20;79.90;;;;;;4917735;29;20105;-64
2022/03/03 06:06:14;;;;;;;45.70;27.40;;;2.20;79.90;;;;;;4931085;29;20044;-64
2022/03/03 06:09:01;;;;;;;45.72;27.98;;;2.30;79.80;;;;;;4910904;29;20424;-64
2022/03/03 06:11:28;;;;;;;48.65;28.27;;;2.20;79.60;;;;;;4932962;29;20055;-64
2022/03/03 06:14:06;;;;;;;49.13;26.83;;;2.20;79.50;;;;;;4933862;29;20570;-64
2022/03/03 06:16:32;;;;;;;47.33;27.40;;;2.20;79.40;;;;;;4933678;29;20070;-65
2022/03/03 06:19:01;;;;;;;45.53;27.92;;;2.20;79.20;;;;;;4933962;29;20047;-65
2022/03/03 06:21:27;;;;;;;50.28;28.40;;;2.10;79.30;;;;;;4933691;29;20061;-65
2022/03/03 06:23:52;;;;;;;43.30;26.88;;;2.10;79.30;;;;;;4916800;29;20126;-65
2022/03/03 06:26:19;;;;;;;45.25;26.75;;;2.10;79.30;;;;;;4933534;29;20051;-66
2022/03/03 06:28:46;;;;;;;46.60;28.73;;;2.10;79.30;;;;;;4933448;29;20090;-66
2022/03/03 06:31:12;;;;;;;46.05;27.80;;;2.10;79.20;;;;;;4911120;29;20044;-66
2022/03/03 06:33:39;;;;;;;46.75;27.92;;;2.10;79.30;;;;;;4914908;29;20067;-66
2022/03/03 06:36:05;;;;;;;43.35;27.05;;;2.10;79.20;;;;;;4897808;29;20390;-65
2022/03/03 06:38:31;;;;;;;47.30;28.30;;;2.10;79.20;;;;;;4910412;29;20048;-64
2022/03/03 06:40:57;;;;;;;45.50;25.55;;;2.10;79.20;;;;;;4930956;29;20051;-64
2022/03/03 06:43:24;;;;;;;45.35;26.05;;;2.10;79.00;;;;;;4933681;29;20040;-64
2022/03/03 06:45:50;;;;;;;41.83;26.23;;;2.00;79.10;;;;;;4917602;29;20429;-63
2022/03/03 06:48:16;;;;;;;48.05;27.42;;;2.10;79.10;;;;;;4931243;29;20036;-65
2022/03/03 06:50:43;;;;;;;43.38;27.02;;;2.00;79.10;;;;;;4933746;29;20563;-65
2022/03/03 06:53:09;;;;;;;46.38;28.70;;;2.10;79.00;;;;;;4933514;29;20070;-65
2022/03/03 06:55:36;;;;;;;45.47;26.15;;;2.00;79.00;;;;;;4933102;29;20090;-65
2022/03/03 06:58:03;;;;;;;46.25;25.48;;;2.00;79.10;;;;;;4917066;29;20052;-65
2022/03/03 07:00:33;;;;;;;43.20;25.80;;;2.10;79.00;;;;;;4916338;29;20048;-65
2022/03/03 07:03:00;;;;;;;43.55;25.60;;;2.10;79.10;;;;;;4913546;29;20048;-65
2022/03/03 07:05:28;;;;;;;48.03;27.02;;;2.10;79.10;;;;;;4913924;29;20048;-65
2022/03/03 07:07:55;;;;;;;46.50;27.15;;;2.10;79.10;;;;;;4920239;29;20055;-66
2022/03/03 07:10:24;;;;;;;39.92;24.23;;;2.10;79.30;;;;;;4931846;29;20043;-64
2022/03/03 07:12:56;;;;;;;40.17;22.42;;;2.20;79.30;;;;;;4913657;29;20109;-65
2022/03/03 07:15:24;;;;;;;44.75;25.80;;;3.50;88.20;;;;;;4931569;29;20075;-65
2022/03/03 07:17:53;;;;;;;43.97;25.55;;;3.60;84.00;;;;;;4932869;29;20123;-65
2022/03/03 07:20:50;;;;;;;41.38;23.65;;;3.40;81.60;;;;;;4900407;29;20056;-65
2022/03/03 07:23:30;;;;;;;39.72;24.23;;;3.30;79.90;;;;;;4924599;29;20107;-65
2022/03/03 07:25:59;;;;;;;39.58;22.13;;;3.10;79.30;;;;;;4931365;29;20046;-65
2022/03/03 07:28:27;;;;;;;42.60;23.95;;;3.00;78.80;;;;;;4933022;29;20047;-65
2022/03/03 07:30:54;;;;;;;41.45;23.33;;;2.90;78.60;;;;;;4931407;29;20126;-64
2022/03/03 07:33:27;;;;;;;36.85;23.90;;;2.90;78.50;;;;;;4932748;29;20095;-65
2022/03/03 07:35:56;;;;;;;36.00;23.77;;;2.90;78.60;;;;;;4932286;29;20131;-65
2022/03/03 07:38:26;;;;;;;36.00;21.40;;;2.80;78.30;;;;;;4931653;29;20050;-65
2022/03/03 07:40:52;;;;;;;40.88;23.50;;;2.90;78.40;;;;;;4932173;29;20103;-65
2022/03/03 07:43:18;;;;;;;41.50;23.80;;;2.90;78.30;;;;;;4925095;29;20036;-65
2022/03/03 07:45:45;;;;;;;39.33;24.02;;;2.90;78.10;;;;;;4896177;29;20878;-65
2022/03/03 07:48:12;;;;;;;33.40;21.35;;;2.90;78.30;;;;;;4897942;29;20468;-65
2022/03/03 07:50:39;;;;;;;39.58;24.88;;;2.90;78.00;;;;;;4931854;29;20056;-65
2022/03/03 07:53:07;;;;;;;40.92;23.40;;;3.00;77.90;;;;;;4931774;29;20066;-65
2022/03/03 07:55:38;;;;;;;39.15;22.77;;;3.10;78.10;;;;;;4914681;29;20456;-64
2022/03/03 07:58:06;;;;;;;38.63;21.95;;;3.10;78.20;;;;;;4930635;29;20102;-65
2022/03/03 08:00:34;;;;;;;31.98;20.95;;;3.20;78.20;;;;;;4925372;29;20044;-66
2022/03/03 08:03:05;;;;;;;38.97;23.67;;;3.30;78.10;;;;;;4895975;29;20051;-64
2022/03/03 08:05:31;;;;;;;35.75;23.13;;;3.30;77.90;;;;;;4922697;29;20042;-64
2022/03/03 08:08:01;;;;;;;36.05;22.60;;;3.30;77.60;;;;;;4898342;29;20365;-64
2022/03/03 08:10:29;;;;;;;42.10;24.30;;;3.40;77.40;;;;;;4913955;29;20048;-65
2022/03/03 08:12:57;;;;;;;39.50;22.45;;;3.30;77.10;;;;;;4917136;29;20043;-64
2022/03/03 08:15:24;;;;;;;35.35;22.38;;;3.40;77.20;;;;;;4921346;29;20072;-65
2022/03/03 08:17:51;;;;;;;30.25;21.40;;;3.50;77.30;;;;;;4914668;29;20431;-64
2022/03/03 08:20:17;;;;;;;34.53;21.10;;;3.50;77.10;;;;;;4929367;29;20139;-64
2022/03/03 08:22:43;;;;;;;31.85;20.08;;;3.60;76.90;;;;;;4923176;29;20048;-65
2022/03/03 08:25:11;;;;;;;34.58;21.65;;;3.60;76.90;;;;;;4896217;29;20428;-64
2022/03/03 08:27:38;;;;;;;37.88;21.40;;;3.70;76.90;;;;;;4925879;29;20476;-64
2022/03/03 08:30:06;;;;;;;35.97;21.05;;;3.70;76.80;;;;;;4924959;29;20054;-63
2022/03/03 08:32:37;;;;;;;34.00;20.88;;;3.80;76.70;;;;;;4930725;29;20058;-64
2022/03/03 08:35:11;;;;;;;32.72;20.48;;;3.90;76.60;;;;;;4927571;29;20044;-64
2022/03/03 08:37:47;;;;;;;30.30;19.70;;;3.90;76.30;;;;;;4931181;29;20158;-64
2022/03/03 08:40:18;;;;;;;33.70;19.15;;;3.90;76.40;;;;;;4930492;29;20560;-64
2022/03/03 08:42:56;;;;;;;34.47;21.15;;;4.00;76.00;;;;;;4902323;29;20051;-65
2022/03/03 08:45:23;;;;;;;32.15;19.92;;;4.10;75.90;;;;;;4924902;29;20065;-64
2022/03/03 08:47:57;;;;;;;30.55;19.80;;;4.10;76.00;;;;;;4931294;29;20044;-64
2022/03/03 08:50:27;;;;;;;28.88;19.08;;;4.20;76.10;;;;;;4921055;29;20135;-65
2022/03/03 08:52:54;;;;;;;33.80;20.27;;;4.20;75.60;;;;;;4931509;29;20059;-64
2022/03/03 08:55:20;;;;;;;29.88;19.80;;;4.20;75.80;;;;;;4928919;29;20095;-65
2022/03/03 08:57:46;;;;;;;27.77;18.58;;;4.40;76.10;;;;;;4923753;29;20051;-65
2022/03/03 09:00:12;;;;;;;27.02;17.90;;;4.50;76.30;;;;;;4915516;29;20044;-65
2022/03/03 09:02:40;;;;;;;30.65;20.02;;;4.70;76.40;;;;;;4931610;29;20567;-64
2022/03/03 09:05:06;;;;;;;34.08;19.50;;;4.80;76.10;;;;;;4935862;29;20051;-64
2022/03/03 09:07:32;;;;;;;30.88;19.30;;;4.90;75.90;;;;;;4935794;29;20082;-64
2022/03/03 09:09:57;;;;;;;31.58;18.30;;;5.00;75.90;;;;;;4936055;29;20087;-65
2022/03/03 09:12:23;;;;;;;26.30;16.92;;;5.10;75.70;;;;;;4931069;29;20489;-65
2022/03/03 09:14:49;;;;;;;26.13;17.02;;;5.20;75.10;;;;;;4923060;29;20039;-64
2022/03/03 09:17:15;;;;;;;30.00;18.15;;;5.20;75.10;;;;;;4926503;29;20048;-64
2022/03/03 09:19:40;;;;;;;32.50;18.65;;;5.30;74.60;;;;;;4926982;29;20079;-65
2022/03/03 09:22:06;;;;;;;24.55;16.90;;;5.20;73.20;;;;;;4915884;29;20040;-65
2022/03/03 09:24:32;;;;;;;25.90;17.70;;;5.30;73.20;;;;;;4921940;29;20421;-64
2022/03/03 09:26:57;;;;;;;29.30;17.50;;;5.40;72.90;;;;;;4936103;29;20052;-65
2022/03/03 09:29:23;;;;;;;25.52;16.02;;;5.50;72.80;;;;;;4941382;29;20130;-65
2022/03/03 09:31:49;;;;;;;25.15;15.90;;;5.50;72.30;;;;;;4935391;29;20043;-65
2022/03/03 09:34:16;;;;;;;32.45;17.80;;;5.60;72.40;;;;;;4934601;29;20071;-64
2022/03/03 09:36:42;;;;;;;25.45;16.70;;;5.60;71.80;;;;;;4918040;29;20056;-64
2022/03/03 09:39:08;;;;;;;27.38;16.80;;;5.70;71.50;;;;;;4924062;29;20540;-65
2022/03/03 09:41:34;;;;;;;25.88;16.02;;;5.70;71.30;;;;;;4916871;29;20135;-68
2022/03/03 09:43:59;;;;;;;26.88;17.60;;;5.90;71.50;;;;;;4916746;29;20119;-65
2022/03/03 09:46:25;;;;;;;26.02;17.40;;;6.10;70.50;;;;;;4930337;29;20127;-66
2022/03/03 09:48:51;;;;;;;31.95;18.05;;;6.20;71.00;;;;;;4933238;29;20054;-65
2022/03/03 09:51:17;;;;;;;25.00;15.75;;;6.20;70.70;;;;;;4917194;29;20047;-67
2022/03/03 09:53:43;;;;;;;25.40;17.23;;;6.20;70.50;;;;;;4921591;29;20083;-66
2022/03/03 09:56:09;;;;;;;23.52;16.30;;;6.20;70.30;;;;;;4914521;29;20056;-64
2022/03/03 09:58:35;;;;;;;24.92;16.10;;;6.30;69.60;;;;;;4922141;29;20043;-64
2022/03/03 10:01:01;;;;;;;27.02;16.38;;;6.30;69.80;;;;;;4915699;29;20559;-65
2022/03/03 10:03:34;;;;;;;28.05;16.75;;;6.30;69.40;;;;;;4929734;29;20047;-65
2022/03/03 10:06:00;;;;;;;25.52;16.58;;;6.40;69.50;;;;;;4933739;29;20052;-64
2022/03/03 10:08:28;;;;;;;21.73;15.10;;;6.40;69.30;;;;;;4925702;29;20061;-65
2022/03/03 10:10:56;;;;;;;25.70;16.55;;;6.40;68.60;;;;;;4902746;29;20418;-64
2022/03/03 10:13:22;;;;;;;24.05;15.75;;;6.50;69.10;;;;;;4922490;29;20040;-65
2022/03/03 10:15:57;;;;;;;24.42;15.27;;;6.60;69.20;;;;;;4904731;29;20114;-65
2022/03/03 10:18:24;;;;;;;23.77;16.35;;;6.70;68.70;;;;;;4913342;29;20162;-65
2022/03/03 10:20:52;;;;;;;24.00;15.23;;;6.70;68.50;;;;;;4895394;29;20036;-65
2022/03/03 10:23:25;;;;;;;21.75;15.65;;;6.80;68.20;;;;;;4915316;29;20107;-65
2022/03/03 10:25:53;;;;;;;23.42;15.40;;;6.80;68.40;;;;;;4926548;29;20052;-65
2022/03/03 10:28:22;;;;;;;24.33;15.13;;;6.90;67.80;;;;;;4914723;29;20044;-65
2022/03/03 10:30:48;;;;;;;23.10;15.07;;;7.00;68.10;;;;;;4900549;29;20469;-65
2022/03/03 10:33:15;;;;;;;23.80;14.65;;;7.00;67.70;;;;;;4915510;29;20103;-66
2022/03/03 10:35:41;;;;;;;21.75;14.25;;;7.10;67.70;;;;;;4912367;29;20078;-64
2022/03/03 10:38:06;;;;;;;19.48;14.48;;;7.10;67.20;;;;;;4934197;29;20548;-63
2022/03/03 10:40:36;;;;;;;24.63;15.38;;;7.10;66.50;;;;;;4930297;29;20058;-65
2022/03/03 10:43:01;;;;;;;20.50;13.70;;;7.10;66.30;;;;;;4932527;29;20056;-64
2022/03/03 10:45:27;;;;;;;19.48;13.05;;;7.20;66.00;;;;;;4917594;29;20055;-64
2022/03/03 10:48:03;;;;;;;21.50;14.40;;;7.30;66.30;;;;;;4917033;29;20054;-65
2022/03/03 10:50:45;;;;;;;23.73;14.15;;;7.30;66.00;;;;;;4933976;29;20467;-65
2022/03/03 10:53:11;;;;;;;;;;;7.40;65.10;;;;;;4933902;29;20068;-65
2022/03/03 10:55:36;;;;;;;21.73;14.13;;;7.40;64.70;;;;;;4930391;29;20497;-64
2022/03/03 10:58:03;;;;;;;20.50;13.40;;;7.40;65.00;;;;;;4932499;29;20039;-65
2022/03/03 11:00:30;;;;;;;20.42;14.00;;;7.50;64.60;;;;;;4928166;29;20501;-64
2022/03/03 11:03:00;;;;;;;22.30;13.32;;;7.60;64.90;;;;;;4920761;29;20521;-65
2022/03/03 11:05:28;;;;;;;19.40;13.32;;;7.60;64.80;;;;;;4921757;29;20051;-65
2022/03/03 11:07:54;;;;;;;22.73;13.60;;;7.60;63.80;;;;;;4921214;29;20046;-65
2022/03/03 11:10:22;;;;;;;20.48;13.27;;;7.70;62.50;;;;;;4914943;29;20044;-66
2022/03/03 11:12:49;;;;;;;17.55;12.07;;;7.70;62.10;;;;;;4919528;29;20052;-65
2022/03/03 11:15:17;;;;;;;18.85;12.77;;;7.80;62.40;;;;;;4932140;29;20564;-66
2022/03/03 11:17:43;;;;;;;17.33;12.82;;;7.80;61.40;;;;;;4907392;29;20627;-66
2022/03/03 11:20:13;;;;;;;20.17;13.65;;;7.90;62.30;;;;;;4919061;29;20039;-65
2022/03/03 11:22:40;;;;;;;20.52;12.55;;;7.90;61.90;;;;;;4927155;29;20051;-66
2022/03/03 11:25:08;;;;;;;17.23;13.30;;;7.90;61.30;;;;;;4931272;29;20043;-63
2022/03/03 11:27:35;;;;;;;23.35;12.95;;;8.00;61.60;;;;;;4932126;29;20047;-64
2022/03/03 11:30:30;;;;;;;16.77;11.82;;;8.10;61.40;;;;;;4932259;29;20043;-64
2022/03/03 11:33:21;;;;;;;22.08;13.30;;;8.10;60.20;;;;;;4914807;29;20063;-64
2022/03/03 11:36:06;;;;;;;18.95;11.75;;;8.20;60.70;;;;;;4901181;29;20056;-65
2022/03/03 11:38:52;;;;;;;20.20;12.43;;;8.30;61.00;;;;;;4918223;29;20051;-65
2022/03/03 11:41:20;;;;;;;17.92;12.05;;;8.30;60.30;;;;;;4928301;29;20050;-62
2022/03/03 11:43:58;;;;;;;17.27;12.13;;;8.40;60.60;;;;;;4927039;29;20044;-65
2022/03/03 11:46:47;;;;;;;18.25;12.60;;;8.40;59.70;;;;;;4919971;29;20051;-66
2022/03/03 11:49:17;;;;;;;17.67;12.23;;;8.60;59.90;;;;;;4915866;29;20044;-71
2022/03/03 11:51:45;;;;;;;18.75;12.60;;;8.60;60.10;;;;;;4904637;29;20377;-65
2022/03/03 11:54:12;;;;;;;20.05;11.52;;;8.70;59.80;;;;;;4909185;29;20110;-65
2022/03/03 11:57:09;;;;;;;20.55;12.68;;;8.80;59.60;;;;;;4920757;29;20529;-65
2022/03/03 11:59:42;;;;;;;15.95;11.93;;;8.90;59.30;;;;;;4930888;29;20544;-64
2022/03/03 12:02:09;;;;;;;15.52;10.73;;;8.90;58.90;;;;;;4929764;29;20048;-64
2022/03/03 12:04:37;;;;;;;15.40;10.18;;;8.90;59.30;;;;;;4920992;29;20064;-65
2022/03/03 12:07:03;;;;;;;18.55;10.30;;;9.00;59.30;;;;;;4930633;29;20492;-65
2022/03/03 12:09:32;;;;;;;14.95;9.98;;;9.10;59.40;;;;;;4930692;29;20032;-65
2022/03/03 12:12:08;;;;;;;14.55;9.82;;;9.10;58.70;;;;;;4925484;29;20047;-64
2022/03/03 12:14:53;;;;;;;17.38;10.13;;;9.20;58.60;;;;;;4923472;29;20040;-66
2022/03/03 12:17:46;;;;;;;13.75;9.30;;;9.40;58.20;;;;;;4929303;29;20079;-65
2022/03/03 12:20:23;;;;;;;12.95;8.18;;;9.40;57.90;;;;;;4931657;29;20047;-66
2022/03/03 12:23:10;;;;;;;13.05;9.30;;;9.50;57.80;;;;;;4931746;29;20047;-66
2022/03/03 12:25:50;;;;;;;11.80;8.02;;;9.60;58.30;;;;;;4931083;29;20114;-65
2022/03/03 12:28:23;;;;;;;10.63;7.32;;;9.60;57.70;;;;;;4930049;29;20048;-66
2022/03/03 12:30:51;;;;;;;15.93;5.38;;;9.70;57.20;;;;;;4910836;29;20071;-68
2022/03/03 12:33:30;;;;;;;11.52;6.20;;;9.90;58.60;;;;;;4911802;29;20052;-67
2022/03/03 12:36:04;;;;;;;18.33;7.00;;;10.30;61.70;;;;;;4928797;29;20059;-71
2022/03/03 12:38:30;;;;;;;13.73;9.00;;;10.90;61.30;;;;;;4932654;29;20055;-69
2022/03/03 12:40:56;;;;;;;15.88;8.88;;;11.30;60.00;;;;;;4933561;29;20402;-67